sensor_id;sensor_type;location;lat;lon;timestamp;temperature;humidity
6662;DHT22;3367;48.714;8.994;2022-12-29T00:02:25;7.60;99.90
6662;DHT22;3367;48.714;8.994;2022-12-29T00:04:53;7.70;99.90
6662;DHT22;3367;48.714;8.994;2022-12-29T00:07:20;7.70;99.90
6662;DHT22;3367;48.714;8.994;2022-12-29T00:09:47;7.80;99.90
6662;DHT22;3367;48.714;8.994;2022-12-29T00:12:13;7.80;99.90
6662;DHT22;3367;48.714;8.994;2022-12-29T00:14:40;7.90;99.90
6662;DHT22;3367;48.714;8.994;2022-12-29T00:17:24;7.90;99.90
6662;DHT22;3367;48.714;8.994;2022-12-29T00:19:51;8.00;99.90
6662;DHT22;3367;48.714;8.994;2022-12-29T00:22:37;8.00;99.90
6662;DHT22;3367;48.714;8.994;2022-12-29T00:25:21;8.10;99.90
6662;DHT22;3367;48.714;8.994;2022-12-29T00:28:08;8.10;99.90
6662;DHT22;3367;48.714;8.994;2022-12-29T00:30:52;8.10;99.90
6662;DHT22;3367;48.714;8.994;2022-12-29T00:33:36;8.20;99.90
6662;DHT22;3367;48.714;8.994;2022-12-29T00:36:24;8.20;99.90
6662;DHT22;3367;48.714;8.994;2022-12-29T00:39:01;8.20;99.90
6662;DHT22;3367;48.714;8.994;2022-12-29T00:41:45;8.20;99.90
6662;DHT22;3367;48.714;8.994;2022-12-29T00:44:29;8.20;99.90
6662;DHT22;3367;48.714;8.994;2022-12-29T00:46:56;8.20;99.90
6662;DHT22;3367;48.714;8.994;2022-12-29T00:49:27;8.30;99.90
6662;DHT22;3367;48.714;8.994;2022-12-29T00:51:58;8.30;99.90
6662;DHT22;3367;48.714;8.994;2022-12-29T00:54:26;8.30;99.90
6662;DHT22;3367;48.714;8.994;2022-12-29T00:56:53;8.40;99.90
6662;DHT22;3367;48.714;8.994;2022-12-29T00:59:20;8.50;98.80
6662;DHT22;3367;48.714;8.994;2022-12-29T01:01:50;8.50;98.80
6662;DHT22;3367;48.714;8.994;2022-12-29T01:04:17;8.60;95.20
6662;DHT22;3367;48.714;8.994;2022-12-29T01:06:43;8.60;94.10
6662;DHT22;3367;48.714;8.994;2022-12-29T01:09:10;8.60;93.30
6662;DHT22;3367;48.714;8.994;2022-12-29T01:11:56;8.60;91.70
6662;DHT22;3367;48.714;8.994;2022-12-29T01:14:23;8.50;91.80
6662;DHT22;3367;48.714;8.994;2022-12-29T01:16:50;8.50;92.50
6662;DHT22;3367;48.714;8.994;2022-12-29T01:19:18;8.70;86.70
6662;DHT22;3367;48.714;8.994;2022-12-29T01:21:45;8.80;74.30
6662;DHT22;3367;48.714;8.994;2022-12-29T01:24:11;8.90;68.60
6662;DHT22;3367;48.714;8.994;2022-12-29T01:26:38;8.90;61.40
6662;DHT22;3367;48.714;8.994;2022-12-29T01:29:06;8.90;58.40
6662;DHT22;3367;48.714;8.994;2022-12-29T01:31:33;8.90;55.80
6662;DHT22;3367;48.714;8.994;2022-12-29T01:34:00;9.00;51.10
6662;DHT22;3367;48.714;8.994;2022-12-29T01:36:27;9.00;46.90
6662;DHT22;3367;48.714;8.994;2022-12-29T01:38:53;9.00;46.00
6662;DHT22;3367;48.714;8.994;2022-12-29T01:41:20;9.00;41.70
6662;DHT22;3367;48.714;8.994;2022-12-29T01:43:48;9.00;38.50
6662;DHT22;3367;48.714;8.994;2022-12-29T01:46:26;9.00;34.60
6662;DHT22;3367;48.714;8.994;2022-12-29T01:48:57;9.10;31.60
6662;DHT22;3367;48.714;8.994;2022-12-29T01:51:28;9.10;30.80
6662;DHT22;3367;48.714;8.994;2022-12-29T01:53:58;9.10;27.90
6662;DHT22;3367;48.714;8.994;2022-12-29T01:56:27;9.10;27.10
6662;DHT22;3367;48.714;8.994;2022-12-29T01:58:58;9.10;24.70
6662;DHT22;3367;48.714;8.994;2022-12-29T02:01:28;9.10;23.30
6662;DHT22;3367;48.714;8.994;2022-12-29T02:03:55;9.20;22.40
6662;DHT22;3367;48.714;8.994;2022-12-29T02:06:23;9.10;22.40
6662;DHT22;3367;48.714;8.994;2022-12-29T02:08:53;9.10;23.50
6662;DHT22;3367;48.714;8.994;2022-12-29T02:11:23;9.20;18.20
6662;DHT22;3367;48.714;8.994;2022-12-29T02:13:50;9.20;17.80
6662;DHT22;3367;48.714;8.994;2022-12-29T02:19:42;9.10;21.40
6662;DHT22;3367;48.714;8.994;2022-12-29T02:22:20;9.10;21.90
6662;DHT22;3367;48.714;8.994;2022-12-29T02:27:51;9.30;15.50
6662;DHT22;3367;48.714;8.994;2022-12-29T02:30:40;9.20;16.00
6662;DHT22;3367;48.714;8.994;2022-12-29T02:33:17;9.20;14.60
6662;DHT22;3367;48.714;8.994;2022-12-29T02:35:52;9.20;13.20
6662;DHT22;3367;48.714;8.994;2022-12-29T02:38:29;9.30;12.30
6662;DHT22;3367;48.714;8.994;2022-12-29T02:41:05;9.40;9.40
6662;DHT22;3367;48.714;8.994;2022-12-29T02:43:37;9.40;7.40
6662;DHT22;3367;48.714;8.994;2022-12-29T02:46:11;9.50;4.60
6662;DHT22;3367;48.714;8.994;2022-12-29T02:48:45;9.50;5.10
6662;DHT22;3367;48.714;8.994;2022-12-29T02:51:15;9.60;1.40
6662;DHT22;3367;48.714;8.994;2022-12-29T02:53:45;9.60;1.00
6662;DHT22;3367;48.714;8.994;2022-12-29T02:56:30;9.50;14.40
6662;DHT22;3367;48.714;8.994;2022-12-29T02:58:57;9.60;1.00
6662;DHT22;3367;48.714;8.994;2022-12-29T03:01:34;9.60;1.00
6662;DHT22;3367;48.714;8.994;2022-12-29T03:04:16;9.60;1.00
6662;DHT22;3367;48.714;8.994;2022-12-29T03:06:52;9.60;1.00
6662;DHT22;3367;48.714;8.994;2022-12-29T03:09:31;9.60;1.00
6662;DHT22;3367;48.714;8.994;2022-12-29T03:12:11;9.60;1.00
6662;DHT22;3367;48.714;8.994;2022-12-29T03:14:49;9.60;1.00
6662;DHT22;3367;48.714;8.994;2022-12-29T03:17:43;9.60;1.00
6662;DHT22;3367;48.714;8.994;2022-12-29T03:20:16;9.60;1.00
6662;DHT22;3367;48.714;8.994;2022-12-29T03:22:47;9.60;1.00
6662;DHT22;3367;48.714;8.994;2022-12-29T03:25:18;9.60;1.00
6662;DHT22;3367;48.714;8.994;2022-12-29T03:27:50;9.60;1.00
6662;DHT22;3367;48.714;8.994;2022-12-29T03:30:18;9.60;12.90
6662;DHT22;3367;48.714;8.994;2022-12-29T03:32:50;9.50;1.00
6662;DHT22;3367;48.714;8.994;2022-12-29T03:35:20;9.60;1.00
6662;DHT22;3367;48.714;8.994;2022-12-29T03:37:51;9.50;1.00
6662;DHT22;3367;48.714;8.994;2022-12-29T03:40:21;9.40;3.20
6662;DHT22;3367;48.714;8.994;2022-12-29T03:42:49;9.40;5.70
6662;DHT22;3367;48.714;8.994;2022-12-29T03:45:16;9.40;6.90
6662;DHT22;3367;48.714;8.994;2022-12-29T03:47:43;9.30;10.20
6662;DHT22;3367;48.714;8.994;2022-12-29T03:50:13;9.30;16.00
6662;DHT22;3367;48.714;8.994;2022-12-29T03:52:39;9.30;16.70
6662;DHT22;3367;48.714;8.994;2022-12-29T03:55:06;9.30;21.10
6662;DHT22;3367;48.714;8.994;2022-12-29T03:57:33;9.20;26.20
6662;DHT22;3367;48.714;8.994;2022-12-29T04:00:00;9.20;29.40
6662;DHT22;3367;48.714;8.994;2022-12-29T04:02:27;9.20;34.60
6662;DHT22;3367;48.714;8.994;2022-12-29T04:04:53;9.10;42.20
6662;DHT22;3367;48.714;8.994;2022-12-29T04:07:21;9.10;52.50
6662;DHT22;3367;48.714;8.994;2022-12-29T04:09:48;9.00;61.40
6662;DHT22;3367;48.714;8.994;2022-12-29T04:12:15;9.00;67.00
6662;DHT22;3367;48.714;8.994;2022-12-29T04:14:41;9.00;72.60
6662;DHT22;3367;48.714;8.994;2022-12-29T04:17:08;9.00;87.60
6662;DHT22;3367;48.714;8.994;2022-12-29T04:19:35;9.10;90.10
6662;DHT22;3367;48.714;8.994;2022-12-29T04:22:01;9.20;91.00
6662;DHT22;3367;48.714;8.994;2022-12-29T04:24:29;9.20;91.30
6662;DHT22;3367;48.714;8.994;2022-12-29T04:26:56;9.20;92.20
6662;DHT22;3367;48.714;8.994;2022-12-29T04:29:23;9.20;94.90
6662;DHT22;3367;48.714;8.994;2022-12-29T04:31:49;9.30;96.00
6662;DHT22;3367;48.714;8.994;2022-12-29T04:34:16;9.30;96.40
6662;DHT22;3367;48.714;8.994;2022-12-29T04:36:43;9.40;95.80
6662;DHT22;3367;48.714;8.994;2022-12-29T04:39:09;9.40;96.40
6662;DHT22;3367;48.714;8.994;2022-12-29T04:41:37;9.30;96.40
6662;DHT22;3367;48.714;8.994;2022-12-29T04:44:04;9.40;98.60
6662;DHT22;3367;48.714;8.994;2022-12-29T04:46:31;9.40;99.30
6662;DHT22;3367;48.714;8.994;2022-12-29T04:48:57;9.40;99.90
6662;DHT22;3367;48.714;8.994;2022-12-29T04:51:26;9.50;99.90
6662;DHT22;3367;48.714;8.994;2022-12-29T04:53:52;9.60;99.50
6662;DHT22;3367;48.714;8.994;2022-12-29T04:56:19;9.60;98.70
6662;DHT22;3367;48.714;8.994;2022-12-29T04:58:47;9.70;96.30
6662;DHT22;3367;48.714;8.994;2022-12-29T05:01:14;9.80;95.40
6662;DHT22;3367;48.714;8.994;2022-12-29T05:03:40;9.90;92.10
6662;DHT22;3367;48.714;8.994;2022-12-29T05:06:07;10.00;79.30
6662;DHT22;3367;48.714;8.994;2022-12-29T05:08:34;9.90;78.90
6662;DHT22;3367;48.714;8.994;2022-12-29T05:11:01;9.80;81.50
6662;DHT22;3367;48.714;8.994;2022-12-29T05:13:27;9.90;79.20
6662;DHT22;3367;48.714;8.994;2022-12-29T05:15:55;9.80;82.10
6662;DHT22;3367;48.714;8.994;2022-12-29T05:18:22;9.70;86.30
6662;DHT22;3367;48.714;8.994;2022-12-29T05:20:49;9.70;85.80
6662;DHT22;3367;48.714;8.994;2022-12-29T05:23:16;9.70;88.80
6662;DHT22;3367;48.714;8.994;2022-12-29T05:25:43;9.60;91.70
6662;DHT22;3367;48.714;8.994;2022-12-29T05:28:11;9.60;94.10
6662;DHT22;3367;48.714;8.994;2022-12-29T05:30:38;9.60;95.20
6662;DHT22;3367;48.714;8.994;2022-12-29T05:33:06;9.50;97.50
6662;DHT22;3367;48.714;8.994;2022-12-29T05:35:33;9.50;99.30
6662;DHT22;3367;48.714;8.994;2022-12-29T05:37:59;9.50;99.90
6662;DHT22;3367;48.714;8.994;2022-12-29T05:40:26;9.60;99.90
6662;DHT22;3367;48.714;8.994;2022-12-29T05:42:53;9.60;99.90
6662;DHT22;3367;48.714;8.994;2022-12-29T05:45:19;9.70;99.30
6662;DHT22;3367;48.714;8.994;2022-12-29T05:47:46;9.80;93.10
6662;DHT22;3367;48.714;8.994;2022-12-29T05:50:14;9.90;91.00
6662;DHT22;3367;48.714;8.994;2022-12-29T05:52:41;9.90;98.50
6662;DHT22;3367;48.714;8.994;2022-12-29T05:55:08;10.00;81.80
6662;DHT22;3367;48.714;8.994;2022-12-29T05:57:34;10.10;75.00
6662;DHT22;3367;48.714;8.994;2022-12-29T06:00:01;10.10;69.10
6662;DHT22;3367;48.714;8.994;2022-12-29T06:02:28;10.20;63.40
6662;DHT22;3367;48.714;8.994;2022-12-29T06:04:55;10.20;58.90
6662;DHT22;3367;48.714;8.994;2022-12-29T06:07:23;10.20;57.50
6662;DHT22;3367;48.714;8.994;2022-12-29T06:09:49;10.10;58.20
6662;DHT22;3367;48.714;8.994;2022-12-29T06:12:16;10.00;57.80
6662;DHT22;3367;48.714;8.994;2022-12-29T06:14:43;10.00;55.90
6662;DHT22;3367;48.714;8.994;2022-12-29T06:17:09;10.00;56.60
6662;DHT22;3367;48.714;8.994;2022-12-29T06:19:36;10.00;56.50
6662;DHT22;3367;48.714;8.994;2022-12-29T06:22:03;9.90;59.30
6662;DHT22;3367;48.714;8.994;2022-12-29T06:24:31;9.90;61.50
6662;DHT22;3367;48.714;8.994;2022-12-29T06:26:58;9.90;66.80
6662;DHT22;3367;48.714;8.994;2022-12-29T06:29:24;9.90;65.00
6662;DHT22;3367;48.714;8.994;2022-12-29T06:31:51;10.00;84.20
6662;DHT22;3367;48.714;8.994;2022-12-29T06:34:21;10.00;62.70
6662;DHT22;3367;48.714;8.994;2022-12-29T06:36:48;10.00;59.00
6662;DHT22;3367;48.714;8.994;2022-12-29T06:39:14;10.00;58.60
6662;DHT22;3367;48.714;8.994;2022-12-29T06:41:42;10.00;58.70
6662;DHT22;3367;48.714;8.994;2022-12-29T06:44:09;10.10;55.00
6662;DHT22;3367;48.714;8.994;2022-12-29T06:46:36;10.10;51.00
6662;DHT22;3367;48.714;8.994;2022-12-29T06:49:02;10.10;49.20
6662;DHT22;3367;48.714;8.994;2022-12-29T06:51:29;10.00;49.30
6662;DHT22;3367;48.714;8.994;2022-12-29T06:53:56;10.00;38.90
6662;DHT22;3367;48.714;8.994;2022-12-29T06:56:22;9.90;38.90
6662;DHT22;3367;48.714;8.994;2022-12-29T06:58:50;9.70;41.50
6662;DHT22;3367;48.714;8.994;2022-12-29T07:01:17;9.70;40.50
6662;DHT22;3367;48.714;8.994;2022-12-29T07:03:44;9.70;35.20
6662;DHT22;3367;48.714;8.994;2022-12-29T07:06:11;9.60;33.10
6662;DHT22;3367;48.714;8.994;2022-12-29T07:08:37;9.50;42.00
6662;DHT22;3367;48.714;8.994;2022-12-29T07:11:04;9.40;39.50
6662;DHT22;3367;48.714;8.994;2022-12-29T07:13:31;9.30;35.90
6662;DHT22;3367;48.714;8.994;2022-12-29T07:15:59;9.30;40.80
6662;DHT22;3367;48.714;8.994;2022-12-29T07:18:26;9.20;36.40
6662;DHT22;3367;48.714;8.994;2022-12-29T07:20:52;9.10;39.60
6662;DHT22;3367;48.714;8.994;2022-12-29T07:23:19;9.10;41.90
6662;DHT22;3367;48.714;8.994;2022-12-29T07:25:46;9.00;47.70
6662;DHT22;3367;48.714;8.994;2022-12-29T07:28:12;9.00;47.20
6662;DHT22;3367;48.714;8.994;2022-12-29T07:30:39;8.90;51.50
6662;DHT22;3367;48.714;8.994;2022-12-29T07:33:07;8.90;41.10
6662;DHT22;3367;48.714;8.994;2022-12-29T07:35:34;9.00;56.50
6662;DHT22;3367;48.714;8.994;2022-12-29T07:38:01;9.00;60.50
6662;DHT22;3367;48.714;8.994;2022-12-29T07:40:27;8.90;59.80
6662;DHT22;3367;48.714;8.994;2022-12-29T07:42:54;8.90;65.30
6662;DHT22;3367;48.714;8.994;2022-12-29T07:45:21;8.90;62.10
6662;DHT22;3367;48.714;8.994;2022-12-29T07:47:48;9.00;65.80
6662;DHT22;3367;48.714;8.994;2022-12-29T07:50:16;9.00;66.20
6662;DHT22;3367;48.714;8.994;2022-12-29T07:52:43;9.10;66.70
6662;DHT22;3367;48.714;8.994;2022-12-29T07:55:10;9.10;68.10
6662;DHT22;3367;48.714;8.994;2022-12-29T07:57:36;9.10;67.50
6662;DHT22;3367;48.714;8.994;2022-12-29T08:00:04;9.10;64.40
6662;DHT22;3367;48.714;8.994;2022-12-29T08:02:31;9.10;66.40
6662;DHT22;3367;48.714;8.994;2022-12-29T08:04:58;9.00;71.10
6662;DHT22;3367;48.714;8.994;2022-12-29T08:07:26;9.00;72.90
6662;DHT22;3367;48.714;8.994;2022-12-29T08:09:53;9.10;75.60
6662;DHT22;3367;48.714;8.994;2022-12-29T08:12:19;9.10;73.50
6662;DHT22;3367;48.714;8.994;2022-12-29T08:14:46;9.20;75.60
6662;DHT22;3367;48.714;8.994;2022-12-29T08:17:13;9.20;78.50
6662;DHT22;3367;48.714;8.994;2022-12-29T08:19:39;9.30;74.10
6662;DHT22;3367;48.714;8.994;2022-12-29T08:22:07;9.30;72.20
6662;DHT22;3367;48.714;8.994;2022-12-29T08:24:35;9.40;72.50
6662;DHT22;3367;48.714;8.994;2022-12-29T08:27:02;9.40;69.90
6662;DHT22;3367;48.714;8.994;2022-12-29T08:29:29;9.40;69.90
6662;DHT22;3367;48.714;8.994;2022-12-29T08:31:56;9.50;68.50
6662;DHT22;3367;48.714;8.994;2022-12-29T08:34:22;9.50;63.60
6662;DHT22;3367;48.714;8.994;2022-12-29T08:36:49;9.60;62.10
6662;DHT22;3367;48.714;8.994;2022-12-29T08:39:16;9.60;62.40
6662;DHT22;3367;48.714;8.994;2022-12-29T08:41:44;9.60;60.70
6662;DHT22;3367;48.714;8.994;2022-12-29T08:44:10;9.60;59.60
6662;DHT22;3367;48.714;8.994;2022-12-29T08:46:37;9.60;55.90
6662;DHT22;3367;48.714;8.994;2022-12-29T08:49:04;9.50;58.70
6662;DHT22;3367;48.714;8.994;2022-12-29T08:51:31;9.50;61.70
6662;DHT22;3367;48.714;8.994;2022-12-29T08:53:58;9.50;57.80
6662;DHT22;3367;48.714;8.994;2022-12-29T08:56:25;9.60;53.80
6662;DHT22;3367;48.714;8.994;2022-12-29T08:58:53;9.70;52.30
6662;DHT22;3367;48.714;8.994;2022-12-29T09:01:20;9.80;49.70
6662;DHT22;3367;48.714;8.994;2022-12-29T09:03:47;9.80;47.80
6662;DHT22;3367;48.714;8.994;2022-12-29T09:06:15;9.80;46.90
6662;DHT22;3367;48.714;8.994;2022-12-29T09:08:42;9.90;44.40
6662;DHT22;3367;48.714;8.994;2022-12-29T09:11:09;10.10;39.00
6662;DHT22;3367;48.714;8.994;2022-12-29T09:13:37;10.20;37.90
6662;DHT22;3367;48.714;8.994;2022-12-29T09:16:05;10.30;32.30
6662;DHT22;3367;48.714;8.994;2022-12-29T09:18:32;10.50;18.30
6662;DHT22;3367;48.714;8.994;2022-12-29T09:21:00;10.70;4.50
6662;DHT22;3367;48.714;8.994;2022-12-29T09:23:27;10.90;1.00
6662;DHT22;3367;48.714;8.994;2022-12-29T09:25:54;11.00;1.00
6662;DHT22;3367;48.714;8.994;2022-12-29T09:28:22;11.20;1.00
6662;DHT22;3367;48.714;8.994;2022-12-29T09:30:49;11.40;1.00
6662;DHT22;3367;48.714;8.994;2022-12-29T09:33:17;11.50;1.00
6662;DHT22;3367;48.714;8.994;2022-12-29T09:35:45;11.70;1.00
6662;DHT22;3367;48.714;8.994;2022-12-29T09:38:16;11.80;1.00
6662;DHT22;3367;48.714;8.994;2022-12-29T09:40:45;11.90;1.00
6662;DHT22;3367;48.714;8.994;2022-12-29T09:46:13;11.90;1.00
6662;DHT22;3367;48.714;8.994;2022-12-29T09:48:50;12.00;1.00
6662;DHT22;3367;48.714;8.994;2022-12-29T09:51:23;12.00;1.00
6662;DHT22;3367;48.714;8.994;2022-12-29T09:53:53;12.10;1.00
6662;DHT22;3367;48.714;8.994;2022-12-29T09:56:22;12.20;1.00
6662;DHT22;3367;48.714;8.994;2022-12-29T09:58:52;12.20;1.00
6662;DHT22;3367;48.714;8.994;2022-12-29T10:01:28;12.30;1.00
6662;DHT22;3367;48.714;8.994;2022-12-29T10:03:59;12.40;1.00
6662;DHT22;3367;48.714;8.994;2022-12-29T10:06:32;12.40;1.00
6662;DHT22;3367;48.714;8.994;2022-12-29T10:09:06;12.40;1.00
6662;DHT22;3367;48.714;8.994;2022-12-29T10:11:47;12.30;1.00
6662;DHT22;3367;48.714;8.994;2022-12-29T10:14:29;12.30;1.00
6662;DHT22;3367;48.714;8.994;2022-12-29T10:17:03;12.30;1.00
6662;DHT22;3367;48.714;8.994;2022-12-29T10:19:52;12.30;1.00
6662;DHT22;3367;48.714;8.994;2022-12-29T10:22:31;12.30;1.00
6662;DHT22;3367;48.714;8.994;2022-12-29T10:25:01;12.30;1.00
6662;DHT22;3367;48.714;8.994;2022-12-29T10:27:31;12.30;1.00
6662;DHT22;3367;48.714;8.994;2022-12-29T10:30:01;12.40;1.00
6662;DHT22;3367;48.714;8.994;2022-12-29T10:32:32;12.60;1.00
6662;DHT22;3367;48.714;8.994;2022-12-29T10:35:06;12.70;1.00
6662;DHT22;3367;48.714;8.994;2022-12-29T10:37:42;12.70;1.00
6662;DHT22;3367;48.714;8.994;2022-12-29T10:40:17;12.70;1.00
6662;DHT22;3367;48.714;8.994;2022-12-29T10:42:47;12.70;1.00
6662;DHT22;3367;48.714;8.994;2022-12-29T10:45:18;12.80;1.00
6662;DHT22;3367;48.714;8.994;2022-12-29T10:47:52;13.00;1.00
6662;DHT22;3367;48.714;8.994;2022-12-29T10:50:22;13.30;1.00
6662;DHT22;3367;48.714;8.994;2022-12-29T10:52:50;13.50;1.00
6662;DHT22;3367;48.714;8.994;2022-12-29T10:55:20;13.60;1.00
6662;DHT22;3367;48.714;8.994;2022-12-29T10:57:48;13.70;1.00
6662;DHT22;3367;48.714;8.994;2022-12-29T11:00:17;13.70;1.00
6662;DHT22;3367;48.714;8.994;2022-12-29T11:03:12;13.50;1.00
6662;DHT22;3367;48.714;8.994;2022-12-29T11:05:51;13.30;1.00
6662;DHT22;3367;48.714;8.994;2022-12-29T11:08:20;13.10;1.00
6662;DHT22;3367;48.714;8.994;2022-12-29T11:10:58;12.90;1.00
6662;DHT22;3367;48.714;8.994;2022-12-29T11:13:28;12.70;1.00
6662;DHT22;3367;48.714;8.994;2022-12-29T11:15:56;12.60;1.00
6662;DHT22;3367;48.714;8.994;2022-12-29T11:18:24;12.70;1.00
6662;DHT22;3367;48.714;8.994;2022-12-29T11:20:54;12.60;1.00
6662;DHT22;3367;48.714;8.994;2022-12-29T11:23:28;12.50;1.00
6662;DHT22;3367;48.714;8.994;2022-12-29T11:26:13;12.40;1.00
6662;DHT22;3367;48.714;8.994;2022-12-29T11:28:41;12.30;1.00
6662;DHT22;3367;48.714;8.994;2022-12-29T11:31:09;12.20;1.00
6662;DHT22;3367;48.714;8.994;2022-12-29T11:33:37;12.10;1.00
6662;DHT22;3367;48.714;8.994;2022-12-29T11:36:07;11.90;1.00
6662;DHT22;3367;48.714;8.994;2022-12-29T11:38:36;11.90;1.00
6662;DHT22;3367;48.714;8.994;2022-12-29T11:41:06;11.90;1.00
6662;DHT22;3367;48.714;8.994;2022-12-29T11:43:38;11.90;1.00
6662;DHT22;3367;48.714;8.994;2022-12-29T11:46:06;11.90;1.00
6662;DHT22;3367;48.714;8.994;2022-12-29T11:48:38;11.80;1.00
6662;DHT22;3367;48.714;8.994;2022-12-29T11:51:08;11.80;1.00
6662;DHT22;3367;48.714;8.994;2022-12-29T11:53:39;11.70;16.80
6662;DHT22;3367;48.714;8.994;2022-12-29T11:56:10;11.70;8.40
6662;DHT22;3367;48.714;8.994;2022-12-29T11:58:39;11.60;13.00
6662;DHT22;3367;48.714;8.994;2022-12-29T12:01:09;11.50;18.40
6662;DHT22;3367;48.714;8.994;2022-12-29T12:03:42;11.50;22.20
6662;DHT22;3367;48.714;8.994;2022-12-29T12:06:13;11.40;24.80
6662;DHT22;3367;48.714;8.994;2022-12-29T12:08:45;11.40;29.80
6662;DHT22;3367;48.714;8.994;2022-12-29T12:11:16;11.40;33.40
6662;DHT22;3367;48.714;8.994;2022-12-29T12:13:55;11.40;34.80
6662;DHT22;3367;48.714;8.994;2022-12-29T12:16:28;11.30;41.30
6662;DHT22;3367;48.714;8.994;2022-12-29T12:19:02;11.30;48.50
6662;DHT22;3367;48.714;8.994;2022-12-29T12:21:36;11.30;60.40
6662;DHT22;3367;48.714;8.994;2022-12-29T12:24:23;11.20;74.10
6662;DHT22;3367;48.714;8.994;2022-12-29T12:26:59;11.30;79.40
6662;DHT22;3367;48.714;8.994;2022-12-29T12:29:33;11.30;80.90
6662;DHT22;3367;48.714;8.994;2022-12-29T12:32:05;11.30;92.60
6662;DHT22;3367;48.714;8.994;2022-12-29T12:34:37;11.30;99.90
6662;DHT22;3367;48.714;8.994;2022-12-29T12:37:19;11.30;99.90
6662;DHT22;3367;48.714;8.994;2022-12-29T12:40:07;11.30;99.90
6662;DHT22;3367;48.714;8.994;2022-12-29T12:42:54;11.20;99.90
6662;DHT22;3367;48.714;8.994;2022-12-29T12:45:35;11.00;99.90
6662;DHT22;3367;48.714;8.994;2022-12-29T12:48:18;11.00;99.90
6662;DHT22;3367;48.714;8.994;2022-12-29T12:50:53;11.00;99.90
6662;DHT22;3367;48.714;8.994;2022-12-29T12:53:34;11.00;99.90
6662;DHT22;3367;48.714;8.994;2022-12-29T12:59:09;11.40;99.90
6662;DHT22;3367;48.714;8.994;2022-12-29T13:01:44;11.50;99.90
6662;DHT22;3367;48.714;8.994;2022-12-29T13:04:41;11.70;99.90
6662;DHT22;3367;48.714;8.994;2022-12-29T13:07:21;12.10;99.90
6662;DHT22;3367;48.714;8.994;2022-12-29T13:10:05;12.20;99.90
6662;DHT22;3367;48.714;8.994;2022-12-29T13:12:43;12.20;99.90
6662;DHT22;3367;48.714;8.994;2022-12-29T13:15:21;12.40;99.90
6662;DHT22;3367;48.714;8.994;2022-12-29T13:17:59;12.80;97.80
6662;DHT22;3367;48.714;8.994;2022-12-29T13:20:35;12.60;85.50
6662;DHT22;3367;48.714;8.994;2022-12-29T13:23:09;12.40;94.20
6662;DHT22;3367;48.714;8.994;2022-12-29T13:25:45;12.10;99.90
6662;DHT22;3367;48.714;8.994;2022-12-29T13:28:18;11.80;99.90
6662;DHT22;3367;48.714;8.994;2022-12-29T13:30:52;11.60;99.90
6662;DHT22;3367;48.714;8.994;2022-12-29T13:33:26;11.40;99.90
6662;DHT22;3367;48.714;8.994;2022-12-29T13:36:00;11.40;99.90
6662;DHT22;3367;48.714;8.994;2022-12-29T13:38:34;11.30;99.90
6662;DHT22;3367;48.714;8.994;2022-12-29T13:41:05;11.30;99.90
6662;DHT22;3367;48.714;8.994;2022-12-29T13:43:34;11.30;99.90
6662;DHT22;3367;48.714;8.994;2022-12-29T13:46:06;11.30;99.90
6662;DHT22;3367;48.714;8.994;2022-12-29T13:48:38;11.30;99.90
6662;DHT22;3367;48.714;8.994;2022-12-29T13:51:08;11.30;99.90
6662;DHT22;3367;48.714;8.994;2022-12-29T13:53:41;11.30;99.90
6662;DHT22;3367;48.714;8.994;2022-12-29T13:56:14;11.20;99.90
6662;DHT22;3367;48.714;8.994;2022-12-29T13:58:48;11.20;99.90
6662;DHT22;3367;48.714;8.994;2022-12-29T14:01:20;11.20;99.90
6662;DHT22;3367;48.714;8.994;2022-12-29T14:03:49;11.30;99.90
6662;DHT22;3367;48.714;8.994;2022-12-29T14:06:21;11.30;99.90
6662;DHT22;3367;48.714;8.994;2022-12-29T14:08:50;11.30;99.90
6662;DHT22;3367;48.714;8.994;2022-12-29T14:11:22;11.40;99.90
6662;DHT22;3367;48.714;8.994;2022-12-29T14:13:50;11.30;99.90
6662;DHT22;3367;48.714;8.994;2022-12-29T14:16:31;11.20;99.90
6662;DHT22;3367;48.714;8.994;2022-12-29T14:19:05;11.10;99.90
6662;DHT22;3367;48.714;8.994;2022-12-29T14:21:35;11.00;99.90
6662;DHT22;3367;48.714;8.994;2022-12-29T14:24:38;11.00;99.90
6662;DHT22;3367;48.714;8.994;2022-12-29T14:30:47;11.00;99.90
6662;DHT22;3367;48.714;8.994;2022-12-29T14:33:14;10.90;99.90
6662;DHT22;3367;48.714;8.994;2022-12-29T14:35:43;10.70;99.90
6662;DHT22;3367;48.714;8.994;2022-12-29T14:38:16;10.70;99.90
6662;DHT22;3367;48.714;8.994;2022-12-29T14:40:44;10.60;99.90
6662;DHT22;3367;48.714;8.994;2022-12-29T14:43:19;10.50;1.00
6662;DHT22;3367;48.714;8.994;2022-12-29T14:45:54;10.50;1.00
6662;DHT22;3367;48.714;8.994;2022-12-29T14:48:39;10.50;1.00
6662;DHT22;3367;48.714;8.994;2022-12-29T14:51:24;10.40;1.00
6662;DHT22;3367;48.714;8.994;2022-12-29T14:53:52;10.40;1.00
6662;DHT22;3367;48.714;8.994;2022-12-29T14:56:23;10.30;1.00
6662;DHT22;3367;48.714;8.994;2022-12-29T14:58:52;10.20;1.00
6662;DHT22;3367;48.714;8.994;2022-12-29T15:01:29;10.20;1.00
6662;DHT22;3367;48.714;8.994;2022-12-29T15:04:05;10.10;1.00
6662;DHT22;3367;48.714;8.994;2022-12-29T15:06:36;10.00;1.00
6662;DHT22;3367;48.714;8.994;2022-12-29T15:09:09;10.00;1.00
6662;DHT22;3367;48.714;8.994;2022-12-29T15:11:48;10.00;1.00
6662;DHT22;3367;48.714;8.994;2022-12-29T15:14:31;10.00;1.00
6662;DHT22;3367;48.714;8.994;2022-12-29T15:16:59;10.00;1.00
6662;DHT22;3367;48.714;8.994;2022-12-29T15:19:27;10.00;1.00
6662;DHT22;3367;48.714;8.994;2022-12-29T15:21:55;10.00;1.00
6662;DHT22;3367;48.714;8.994;2022-12-29T15:24:23;10.00;1.00
6662;DHT22;3367;48.714;8.994;2022-12-29T15:26:51;10.00;1.00
6662;DHT22;3367;48.714;8.994;2022-12-29T15:29:36;10.10;1.00
6662;DHT22;3367;48.714;8.994;2022-12-29T15:32:17;10.00;99.90
6662;DHT22;3367;48.714;8.994;2022-12-29T15:34:46;10.00;99.90
6662;DHT22;3367;48.714;8.994;2022-12-29T15:37:18;10.00;1.00
6662;DHT22;3367;48.714;8.994;2022-12-29T15:39:45;10.00;1.00
6662;DHT22;3367;48.714;8.994;2022-12-29T15:42:33;10.00;1.00
6662;DHT22;3367;48.714;8.994;2022-12-29T15:45:05;10.00;1.00
6662;DHT22;3367;48.714;8.994;2022-12-29T15:47:34;10.00;1.00
6662;DHT22;3367;48.714;8.994;2022-12-29T15:50:03;10.00;1.00
6662;DHT22;3367;48.714;8.994;2022-12-29T15:52:32;10.10;1.00
6662;DHT22;3367;48.714;8.994;2022-12-29T15:55:00;10.10;1.00
6662;DHT22;3367;48.714;8.994;2022-12-29T15:57:29;10.10;1.00
6662;DHT22;3367;48.714;8.994;2022-12-29T15:59:58;10.00;1.00
6662;DHT22;3367;48.714;8.994;2022-12-29T16:02:25;9.90;1.00
6662;DHT22;3367;48.714;8.994;2022-12-29T16:04:53;9.70;94.90
6662;DHT22;3367;48.714;8.994;2022-12-29T16:07:26;9.50;99.90
6662;DHT22;3367;48.714;8.994;2022-12-29T16:09:57;9.30;1.00
6662;DHT22;3367;48.714;8.994;2022-12-29T16:12:28;9.20;1.00
6662;DHT22;3367;48.714;8.994;2022-12-29T16:14:58;9.10;99.90
6662;DHT22;3367;48.714;8.994;2022-12-29T16:17:27;9.00;99.90
6662;DHT22;3367;48.714;8.994;2022-12-29T16:19:58;8.90;1.00
6662;DHT22;3367;48.714;8.994;2022-12-29T16:22:28;8.80;1.00
6662;DHT22;3367;48.714;8.994;2022-12-29T16:24:58;8.80;1.00
6662;DHT22;3367;48.714;8.994;2022-12-29T16:27:31;8.70;50.70
6662;DHT22;3367;48.714;8.994;2022-12-29T16:30:04;8.70;99.90
6662;DHT22;3367;48.714;8.994;2022-12-29T16:32:32;8.70;99.90
6662;DHT22;3367;48.714;8.994;2022-12-29T16:35:11;8.70;1.00
6662;DHT22;3367;48.714;8.994;2022-12-29T16:37:38;8.70;1.00
6662;DHT22;3367;48.714;8.994;2022-12-29T16:40:24;8.60;1.00
6662;DHT22;3367;48.714;8.994;2022-12-29T16:49:37;8.60;99.90
6662;DHT22;3367;48.714;8.994;2022-12-29T16:55:28;8.50;1.00
6662;DHT22;3367;48.714;8.994;2022-12-29T16:57:55;8.50;1.00
6662;DHT22;3367;48.714;8.994;2022-12-29T17:00:25;8.50;1.00
6662;DHT22;3367;48.714;8.994;2022-12-29T17:02:55;8.50;1.00
6662;DHT22;3367;48.714;8.994;2022-12-29T17:05:22;8.50;1.00